sensor_id;sensor_type;location;lat;lon;timestamp;pressure;altitude;pressure_sealevel;temperature;humidity
20455;BME280;10386;54.314;10.022;2023-07-13T00:00:36;100903.47;;;15.19;100.00
20455;BME280;10386;54.314;10.022;2023-07-13T00:03:03;100897.53;;;15.34;100.00
20455;BME280;10386;54.314;10.022;2023-07-13T00:05:31;100889.78;;;15.49;100.00
20455;BME280;10386;54.314;10.022;2023-07-13T00:07:58;100894.66;;;15.36;100.00
20455;BME280;10386;54.314;10.022;2023-07-13T00:10:25;100897.84;;;15.41;100.00
20455;BME280;10386;54.314;10.022;2023-07-13T00:12:52;100892.06;;;15.34;100.00
20455;BME280;10386;54.314;10.022;2023-07-13T00:15:24;100893.81;;;15.35;100.00
20455;BME280;10386;54.314;10.022;2023-07-13T00:17:53;100900.84;;;15.18;100.00
20455;BME280;10386;54.314;10.022;2023-07-13T00:20:22;100902.13;;;15.14;100.00
20455;BME280;10386;54.314;10.022;2023-07-13T00:22:49;100893.19;;;15.12;100.00
20455;BME280;10386;54.314;10.022;2023-07-13T00:25:16;100892.38;;;15.20;100.00
20455;BME280;10386;54.314;10.022;2023-07-13T00:27:44;100895.81;;;15.13;100.00
20455;BME280;10386;54.314;10.022;2023-07-13T00:30:11;100892.91;;;15.15;100.00
20455;BME280;10386;54.314;10.022;2023-07-13T00:32:38;100888.63;;;15.21;100.00
20455;BME280;10386;54.314;10.022;2023-07-13T00:35:05;100883.03;;;15.23;100.00
20455;BME280;10386;54.314;10.022;2023-07-13T00:37:32;100886.16;;;15.18;100.00
20455;BME280;10386;54.314;10.022;2023-07-13T00:39:59;100879.91;;;15.27;100.00
20455;BME280;10386;54.314;10.022;2023-07-13T00:42:26;100864.28;;;15.39;100.00
20455;BME280;10386;54.314;10.022;2023-07-13T00:46:02;100861.59;;;15.48;100.00
20455;BME280;10386;54.314;10.022;2023-07-13T00:47:51;100863.31;;;15.49;100.00
20455;BME280;10386;54.314;10.022;2023-07-13T00:50:19;100866.00;;;15.30;100.00
20455;BME280;10386;54.314;10.022;2023-07-13T00:52:50;100861.97;;;15.34;100.00
20455;BME280;10386;54.314;10.022;2023-07-13T00:55:20;100857.41;;;15.44;100.00
20455;BME280;10386;54.314;10.022;2023-07-13T00:57:48;100854.09;;;15.20;100.00
20455;BME280;10386;54.314;10.022;2023-07-13T01:00:15;100843.28;;;15.39;100.00
20455;BME280;10386;54.314;10.022;2023-07-13T01:02:45;100844.94;;;15.31;100.00
20455;BME280;10386;54.314;10.022;2023-07-13T01:05:17;100844.34;;;15.27;100.00
20455;BME280;10386;54.314;10.022;2023-07-13T01:07:45;100853.34;;;15.09;100.00
20455;BME280;10386;54.314;10.022;2023-07-13T01:10:12;100843.97;;;15.12;100.00
20455;BME280;10386;54.314;10.022;2023-07-13T01:12:39;100833.34;;;15.18;100.00
20455;BME280;10386;54.314;10.022;2023-07-13T01:15:39;100829.19;;;15.23;100.00
20455;BME280;10386;54.314;10.022;2023-07-13T01:18:11;100830.44;;;15.10;100.00
20455;BME280;10386;54.314;10.022;2023-07-13T01:20:39;100823.00;;;15.21;100.00
20455;BME280;10386;54.314;10.022;2023-07-13T01:23:10;100819.63;;;15.09;100.00
20455;BME280;10386;54.314;10.022;2023-07-13T01:25:39;100817.63;;;15.11;100.00
20455;BME280;10386;54.314;10.022;2023-07-13T01:28:08;100816.31;;;15.05;100.00
20455;BME280;10386;54.314;10.022;2023-07-13T01:30:39;100800.19;;;15.02;100.00
20455;BME280;10386;54.314;10.022;2023-07-13T01:33:07;100796.19;;;15.16;100.00
20455;BME280;10386;54.314;10.022;2023-07-13T01:35:34;100795.56;;;15.03;100.00
20455;BME280;10386;54.314;10.022;2023-07-13T01:38:01;100800.78;;;15.06;100.00
20455;BME280;10386;54.314;10.022;2023-07-13T01:40:29;100795.00;;;14.99;100.00
20455;BME280;10386;54.314;10.022;2023-07-13T01:42:58;100793.28;;;14.98;100.00
20455;BME280;10386;54.314;10.022;2023-07-13T01:45:25;100780.59;;;14.97;100.00
20455;BME280;10386;54.314;10.022;2023-07-13T01:47:51;100781.72;;;14.95;100.00
20455;BME280;10386;54.314;10.022;2023-07-13T01:50:19;100776.59;;;15.01;100.00
20455;BME280;10386;54.314;10.022;2023-07-13T01:52:46;100770.81;;;14.95;100.00
20455;BME280;10386;54.314;10.022;2023-07-13T01:55:12;100771.34;;;14.89;100.00
20455;BME280;10386;54.314;10.022;2023-07-13T01:57:40;100769.50;;;14.89;100.00
20455;BME280;10386;54.314;10.022;2023-07-13T02:00:11;100764.25;;;14.77;100.00
20455;BME280;10386;54.314;10.022;2023-07-13T02:02:37;100765.03;;;14.88;100.00
20455;BME280;10386;54.314;10.022;2023-07-13T02:05:05;100759.19;;;14.72;100.00
20455;BME280;10386;54.314;10.022;2023-07-13T02:07:32;100752.28;;;14.68;100.00
20455;BME280;10386;54.314;10.022;2023-07-13T02:09:59;100745.94;;;14.68;100.00
20455;BME280;10386;54.314;10.022;2023-07-13T02:12:26;100745.53;;;14.72;100.00
20455;BME280;10386;54.314;10.022;2023-07-13T02:14:53;100746.78;;;14.59;100.00
20455;BME280;10386;54.314;10.022;2023-07-13T02:17:19;100826.94;;;14.48;100.00
20455;BME280;10386;54.314;10.022;2023-07-13T02:19:46;100827.81;;;14.49;100.00
20455;BME280;10386;54.314;10.022;2023-07-13T02:22:13;100815.41;;;14.45;100.00
20455;BME280;10386;54.314;10.022;2023-07-13T02:24:40;100821.88;;;14.44;100.00
20455;BME280;10386;54.314;10.022;2023-07-13T02:27:07;100803.63;;;14.44;100.00
20455;BME280;10386;54.314;10.022;2023-07-13T02:29:34;100798.88;;;14.46;100.00
20455;BME280;10386;54.314;10.022;2023-07-13T02:32:01;100801.00;;;14.63;100.00
20455;BME280;10386;54.314;10.022;2023-07-13T02:34:27;100795.50;;;14.54;100.00
20455;BME280;10386;54.314;10.022;2023-07-13T02:36:58;100785.94;;;14.69;100.00
20455;BME280;10386;54.314;10.022;2023-07-13T02:39:25;100770.13;;;14.72;100.00
20455;BME280;10386;54.314;10.022;2023-07-13T02:41:52;100779.19;;;14.73;100.00
20455;BME280;10386;54.314;10.022;2023-07-13T02:44:18;100757.34;;;14.73;100.00
20455;BME280;10386;54.314;10.022;2023-07-13T02:46:45;100758.63;;;14.78;100.00
20455;BME280;10386;54.314;10.022;2023-07-13T02:49:12;100758.34;;;14.81;100.00
20455;BME280;10386;54.314;10.022;2023-07-13T02:51:39;100756.78;;;14.79;100.00
20455;BME280;10386;54.314;10.022;2023-07-13T02:54:05;100743.63;;;14.93;100.00
20455;BME280;10386;54.314;10.022;2023-07-13T02:56:34;100744.91;;;14.89;100.00
20455;BME280;10386;54.314;10.022;2023-07-13T02:59:01;100735.13;;;14.96;100.00
20455;BME280;10386;54.314;10.022;2023-07-13T03:01:29;100730.56;;;15.16;100.00
20455;BME280;10386;54.314;10.022;2023-07-13T03:03:55;100738.44;;;15.00;100.00
20455;BME280;10386;54.314;10.022;2023-07-13T03:06:22;100737.81;;;14.87;100.00
20455;BME280;10386;54.314;10.022;2023-07-13T03:08:49;100733.69;;;15.02;100.00
20455;BME280;10386;54.314;10.022;2023-07-13T03:11:20;100727.50;;;15.00;100.00
20455;BME280;10386;54.314;10.022;2023-07-13T03:13:47;100719.75;;;15.05;100.00
20455;BME280;10386;54.314;10.022;2023-07-13T03:16:15;100717.00;;;15.05;100.00
20455;BME280;10386;54.314;10.022;2023-07-13T03:18:45;100700.63;;;15.23;100.00
20455;BME280;10386;54.314;10.022;2023-07-13T03:21:12;100700.91;;;15.20;100.00
20455;BME280;10386;54.314;10.022;2023-07-13T03:23:39;100699.78;;;15.23;100.00
20455;BME280;10386;54.314;10.022;2023-07-13T03:26:12;100690.16;;;15.28;100.00
20455;BME280;10386;54.314;10.022;2023-07-13T03:28:40;100692.63;;;15.41;100.00
20455;BME280;10386;54.314;10.022;2023-07-13T03:31:19;100686.97;;;15.23;100.00
20455;BME280;10386;54.314;10.022;2023-07-13T03:33:47;100682.09;;;15.27;100.00
20455;BME280;10386;54.314;10.022;2023-07-13T03:36:20;100676.66;;;15.36;100.00
20455;BME280;10386;54.314;10.022;2023-07-13T03:38:51;100676.06;;;15.33;100.00
20455;BME280;10386;54.314;10.022;2023-07-13T03:41:20;100679.97;;;15.30;100.00
20455;BME280;10386;54.314;10.022;2023-07-13T03:43:47;100679.69;;;15.43;100.00
20455;BME280;10386;54.314;10.022;2023-07-13T03:46:15;100670.75;;;15.50;100.00
20455;BME280;10386;54.314;10.022;2023-07-13T03:48:44;100672.50;;;15.51;100.00
20455;BME280;10386;54.314;10.022;2023-07-13T03:51:13;100673.50;;;15.50;100.00
20455;BME280;10386;54.314;10.022;2023-07-13T03:53:43;100682.44;;;15.52;100.00
20455;BME280;10386;54.314;10.022;2023-07-13T03:56:10;100684.16;;;15.53;100.00
20455;BME280;10386;54.314;10.022;2023-07-13T03:58:39;100675.06;;;15.62;100.00
20455;BME280;10386;54.314;10.022;2023-07-13T04:01:09;100668.59;;;15.63;100.00
20455;BME280;10386;54.314;10.022;2023-07-13T04:03:36;100661.94;;;15.66;100.00
20455;BME280;10386;54.314;10.022;2023-07-13T04:06:06;100664.09;;;15.72;100.00
20455;BME280;10386;54.314;10.022;2023-07-13T04:08:35;100661.25;;;15.73;100.00
20455;BME280;10386;54.314;10.022;2023-07-13T04:11:03;100662.09;;;15.83;100.00
20455;BME280;10386;54.314;10.022;2023-07-13T04:13:30;100665.28;;;15.79;100.00
20455;BME280;10386;54.314;10.022;2023-07-13T04:15:57;100665.41;;;15.87;100.00
20455;BME280;10386;54.314;10.022;2023-07-13T04:18:24;100654.00;;;16.01;100.00
20455;BME280;10386;54.314;10.022;2023-07-13T04:20:51;100656.56;;;16.02;100.00
20455;BME280;10386;54.314;10.022;2023-07-13T04:23:18;100642.47;;;16.97;100.00
20455;BME280;10386;54.314;10.022;2023-07-13T04:25:46;100637.75;;;18.29;100.00
20455;BME280;10386;54.314;10.022;2023-07-13T04:28:16;100661.00;;;18.25;100.00
20455;BME280;10386;54.314;10.022;2023-07-13T04:30:44;100692.91;;;17.75;100.00
20455;BME280;10386;54.314;10.022;2023-07-13T04:33:12;100715.66;;;17.68;100.00
20455;BME280;10386;54.314;10.022;2023-07-13T04:35:38;100738.63;;;17.22;100.00
20455;BME280;10386;54.314;10.022;2023-07-13T04:38:05;100758.31;;;17.18;100.00
20455;BME280;10386;54.314;10.022;2023-07-13T04:40:32;100776.72;;;16.98;100.00
20455;BME280;10386;54.314;10.022;2023-07-13T04:42:59;100780.25;;;17.18;100.00
20455;BME280;10386;54.314;10.022;2023-07-13T04:45:26;100794.22;;;16.97;100.00
20455;BME280;10386;54.314;10.022;2023-07-13T04:47:53;100808.94;;;16.96;100.00
20455;BME280;10386;54.314;10.022;2023-07-13T04:50:20;100811.34;;;17.09;100.00
20455;BME280;10386;54.314;10.022;2023-07-13T04:52:50;100830.56;;;17.09;100.00
20455;BME280;10386;54.314;10.022;2023-07-13T04:55:18;100834.38;;;17.25;100.00
20455;BME280;10386;54.314;10.022;2023-07-13T04:57:46;100850.53;;;17.28;100.00
20455;BME280;10386;54.314;10.022;2023-07-13T05:00:13;100858.63;;;17.30;100.00
20455;BME280;10386;54.314;10.022;2023-07-13T05:02:44;100870.75;;;17.37;100.00
20455;BME280;10386;54.314;10.022;2023-07-13T05:05:12;100887.09;;;17.29;100.00
20455;BME280;10386;54.314;10.022;2023-07-13T05:07:39;100899.59;;;16.95;100.00
20455;BME280;10386;54.314;10.022;2023-07-13T05:10:07;100904.09;;;16.86;100.00
20455;BME280;10386;54.314;10.022;2023-07-13T05:12:34;100894.69;;;16.89;100.00
20455;BME280;10386;54.314;10.022;2023-07-13T05:15:01;100902.03;;;16.98;100.00
20455;BME280;10386;54.314;10.022;2023-07-13T05:17:29;100906.09;;;16.94;100.00
20455;BME280;10386;54.314;10.022;2023-07-13T05:19:56;100907.25;;;16.91;100.00
20455;BME280;10386;54.314;10.022;2023-07-13T05:22:23;100925.16;;;16.86;100.00
20455;BME280;10386;54.314;10.022;2023-07-13T05:24:49;100931.09;;;16.81;100.00
20455;BME280;10386;54.314;10.022;2023-07-13T05:27:16;100929.34;;;16.90;100.00
20455;BME280;10386;54.314;10.022;2023-07-13T05:29:43;100942.03;;;16.91;100.00
20455;BME280;10386;54.314;10.022;2023-07-13T05:32:13;100938.69;;;16.97;100.00
20455;BME280;10386;54.314;10.022;2023-07-13T05:34:40;100943.94;;;16.90;100.00
20455;BME280;10386;54.314;10.022;2023-07-13T05:37:07;100944.91;;;16.99;100.00
20455;BME280;10386;54.314;10.022;2023-07-13T05:39:34;100944.91;;;17.08;100.00
20455;BME280;10386;54.314;10.022;2023-07-13T05:42:02;100948.22;;;17.12;100.00
20455;BME280;10386;54.314;10.022;2023-07-13T05:44:29;100956.03;;;17.07;100.00
20455;BME280;10386;54.314;10.022;2023-07-13T05:46:56;100961.81;;;17.04;100.00
20455;BME280;10386;54.314;10.022;2023-07-13T05:49:23;100959.94;;;17.04;100.00
20455;BME280;10386;54.314;10.022;2023-07-13T05:51:50;100959.94;;;17.04;100.00
20455;BME280;10386;54.314;10.022;2023-07-13T05:54:16;100957.31;;;17.22;100.00
20455;BME280;10386;54.314;10.022;2023-07-13T05:56:43;100926.81;;;17.34;100.00
20455;BME280;10386;54.314;10.022;2023-07-13T05:59:10;100918.81;;;17.50;100.00
20455;BME280;10386;54.314;10.022;2023-07-13T06:01:37;100924.56;;;17.57;100.00
20455;BME280;10386;54.314;10.022;2023-07-13T06:04:04;100942.22;;;17.45;100.00
20455;BME280;10386;54.314;10.022;2023-07-13T06:06:31;100943.47;;;17.60;100.00
20455;BME280;10386;54.314;10.022;2023-07-13T06:08:57;100947.53;;;17.56;100.00
20455;BME280;10386;54.314;10.022;2023-07-13T06:11:26;100964.47;;;17.51;100.00
20455;BME280;10386;54.314;10.022;2023-07-13T06:13:54;100954.53;;;17.77;100.00
20455;BME280;10386;54.314;10.022;2023-07-13T06:16:20;100970.19;;;17.67;100.00
20455;BME280;10386;54.314;10.022;2023-07-13T06:18:47;100980.09;;;17.78;100.00
20455;BME280;10386;54.314;10.022;2023-07-13T06:21:17;100976.59;;;17.85;100.00
20455;BME280;10386;54.314;10.022;2023-07-13T06:23:46;100997.75;;;18.11;100.00
20455;BME280;10386;54.314;10.022;2023-07-13T06:26:17;101015.19;;;17.84;100.00
20455;BME280;10386;54.314;10.022;2023-07-13T06:28:45;101025.41;;;18.01;100.00
20455;BME280;10386;54.314;10.022;2023-07-13T06:31:13;101039.31;;;18.26;100.00
20455;BME280;10386;54.314;10.022;2023-07-13T06:33:41;101055.44;;;18.11;100.00
20455;BME280;10386;54.314;10.022;2023-07-13T06:36:08;101059.16;;;18.20;100.00
20455;BME280;10386;54.314;10.022;2023-07-13T06:38:36;101068.59;;;18.17;100.00
20455;BME280;10386;54.314;10.022;2023-07-13T06:41:04;101079.97;;;18.22;100.00
20455;BME280;10386;54.314;10.022;2023-07-13T06:43:31;101091.53;;;18.35;100.00
20455;BME280;10386;54.314;10.022;2023-07-13T06:45:58;101099.00;;;18.07;100.00
20455;BME280;10386;54.314;10.022;2023-07-13T06:48:26;101108.78;;;18.18;100.00
20455;BME280;10386;54.314;10.022;2023-07-13T06:50:53;101109.84;;;18.44;100.00
20455;BME280;10386;54.314;10.022;2023-07-13T06:53:20;101109.53;;;18.47;100.00
20455;BME280;10386;54.314;10.022;2023-07-13T06:56:07;101126.25;;;19.77;100.00
20455;BME280;10386;54.314;10.022;2023-07-13T06:58:34;101138.91;;;19.88;100.00
20455;BME280;10386;54.314;10.022;2023-07-13T07:01:02;101157.13;;;21.48;100.00
20455;BME280;10386;54.314;10.022;2023-07-13T07:03:29;101208.94;;;20.97;100.00
20455;BME280;10386;54.314;10.022;2023-07-13T07:06:28;101244.28;;;22.00;100.00
20455;BME280;10386;54.314;10.022;2023-07-13T07:08:55;101277.47;;;21.01;100.00
20455;BME280;10386;54.314;10.022;2023-07-13T07:11:23;101302.22;;;20.42;100.00
20455;BME280;10386;54.314;10.022;2023-07-13T07:13:52;101298.50;;;20.51;100.00
20455;BME280;10386;54.314;10.022;2023-07-13T07:16:20;101305.66;;;20.62;100.00
20455;BME280;10386;54.314;10.022;2023-07-13T07:18:47;101313.78;;;21.14;100.00
20455;BME280;10386;54.314;10.022;2023-07-13T07:21:14;101340.03;;;21.51;100.00
20455;BME280;10386;54.314;10.022;2023-07-13T07:23:42;101339.53;;;21.22;100.00
20455;BME280;10386;54.314;10.022;2023-07-13T07:26:10;101355.41;;;21.20;100.00
20455;BME280;10386;54.314;10.022;2023-07-13T07:28:37;101373.34;;;21.16;100.00
20455;BME280;10386;54.314;10.022;2023-07-13T07:31:06;101380.88;;;21.06;100.00
20455;BME280;10386;54.314;10.022;2023-07-13T07:33:36;101379.41;;;21.20;100.00
20455;BME280;10386;54.314;10.022;2023-07-13T07:36:03;101393.31;;;21.36;100.00
20455;BME280;10386;54.314;10.022;2023-07-13T07:38:33;101406.03;;;20.61;100.00
20455;BME280;10386;54.314;10.022;2023-07-13T07:41:03;101408.97;;;20.42;100.00
20455;BME280;10386;54.314;10.022;2023-07-13T07:43:33;101401.28;;;20.53;100.00
20455;BME280;10386;54.314;10.022;2023-07-13T07:46:00;101399.53;;;21.12;100.00
20455;BME280;10386;54.314;10.022;2023-07-13T07:48:29;101396.41;;;21.33;100.00
20455;BME280;10386;54.314;10.022;2023-07-13T07:50:56;101397.81;;;21.11;100.00
20455;BME280;10386;54.314;10.022;2023-07-13T07:53:23;101391.94;;;21.40;100.00
20455;BME280;10386;54.314;10.022;2023-07-13T07:55:49;101389.25;;;21.22;100.00
20455;BME280;10386;54.314;10.022;2023-07-13T07:58:20;101397.38;;;20.81;100.00
20455;BME280;10386;54.314;10.022;2023-07-13T08:00:50;101403.81;;;20.29;100.00
20455;BME280;10386;54.314;10.022;2023-07-13T08:03:19;101425.28;;;19.54;100.00
20455;BME280;10386;54.314;10.022;2023-07-13T08:05:52;101434.88;;;18.95;100.00
20455;BME280;10386;54.314;10.022;2023-07-13T08:08:22;101423.56;;;18.98;100.00
20455;BME280;10386;54.314;10.022;2023-07-13T08:10:49;101413.22;;;19.10;100.00
20455;BME280;10386;54.314;10.022;2023-07-13T08:13:16;101404.72;;;19.03;100.00
20455;BME280;10386;54.314;10.022;2023-07-13T08:15:44;101382.84;;;19.02;100.00
20455;BME280;10386;54.314;10.022;2023-07-13T08:18:11;101367.63;;;19.07;100.00
20455;BME280;10386;54.314;10.022;2023-07-13T08:20:39;101358.34;;;19.08;100.00
20455;BME280;10386;54.314;10.022;2023-07-13T08:23:07;101362.41;;;19.14;100.00
20455;BME280;10386;54.314;10.022;2023-07-13T08:25:35;101347.81;;;18.94;100.00
20455;BME280;10386;54.314;10.022;2023-07-13T08:28:03;101339.88;;;18.91;100.00
20455;BME280;10386;54.314;10.022;2023-07-13T08:30:30;101336.94;;;18.93;100.00
20455;BME280;10386;54.314;10.022;2023-07-13T08:32:57;101325.00;;;19.11;100.00
20455;BME280;10386;54.314;10.022;2023-07-13T08:35:24;101323.84;;;19.14;100.00
20455;BME280;10386;54.314;10.022;2023-07-13T08:37:52;101307.91;;;19.08;100.00
20455;BME280;10386;54.314;10.022;2023-07-13T08:40:24;101297.69;;;19.37;100.00
20455;BME280;10386;54.314;10.022;2023-07-13T08:42:57;101308.03;;;19.25;100.00
20455;BME280;10386;54.314;10.022;2023-07-13T08:48:10;101312.88;;;17.83;100.00
20455;BME280;10386;54.314;10.022;2023-07-13T08:50:54;101345.88;;;16.54;100.00
20455;BME280;10386;54.314;10.022;2023-07-13T08:53:47;101350.25;;;16.56;100.00
20455;BME280;10386;54.314;10.022;2023-07-13T08:56:19;101321.53;;;16.19;100.00
20455;BME280;10386;54.314;10.022;2023-07-13T08:58:51;101298.13;;;16.15;100.00
20455;BME280;10386;54.314;10.022;2023-07-13T09:04:20;101247.31;;;16.32;100.00
20455;BME280;10386;54.314;10.022;2023-07-13T09:15:34;101104.06;;;18.47;100.00
20455;BME280;10386;54.314;10.022;2023-07-13T09:18:13;101076.94;;;19.14;100.00
20455;BME280;10386;54.314;10.022;2023-07-13T09:20:48;101068.47;;;19.43;100.00
20455;BME280;10386;54.314;10.022;2023-07-13T09:23:19;101057.38;;;20.03;100.00
20455;BME280;10386;54.314;10.022;2023-07-13T09:25:49;101065.91;;;19.92;100.00
20455;BME280;10386;54.314;10.022;2023-07-13T09:28:28;101059.16;;;20.45;100.00
20455;BME280;10386;54.314;10.022;2023-07-13T09:31:23;101065.56;;;20.12;100.00
20455;BME280;10386;54.314;10.022;2023-07-13T09:33:51;101067.94;;;20.41;100.00
20455;BME280;10386;54.314;10.022;2023-07-13T09:38:48;101089.53;;;20.20;100.00
20455;BME280;10386;54.314;10.022;2023-07-13T09:41:34;101098.69;;;20.54;100.00
20455;BME280;10386;54.314;10.022;2023-07-13T09:44:11;101102.28;;;20.54;100.00
20455;BME280;10386;54.314;10.022;2023-07-13T09:46:47;101102.50;;;21.02;100.00
20455;BME280;10386;54.314;10.022;2023-07-13T09:49:22;101118.91;;;21.19;100.00
20455;BME280;10386;54.314;10.022;2023-07-13T09:51:57;101143.47;;;21.30;100.00
20455;BME280;10386;54.314;10.022;2023-07-13T09:54:25;101173.25;;;21.03;100.00
20455;BME280;10386;54.314;10.022;2023-07-13T09:56:59;101196.88;;;20.72;100.00
20455;BME280;10386;54.314;10.022;2023-07-13T09:59:35;101205.19;;;20.80;100.00
20455;BME280;10386;54.314;10.022;2023-07-13T10:05:13;101220.03;;;19.68;100.00
20455;BME280;10386;54.314;10.022;2023-07-13T10:07:44;101241.72;;;19.19;100.00
20455;BME280;10386;54.314;10.022;2023-07-13T10:10:17;101249.00;;;18.64;100.00
20455;BME280;10386;54.314;10.022;2023-07-13T10:12:44;101258.28;;;18.63;100.00
20455;BME280;10386;54.314;10.022;2023-07-13T10:15:20;101249.41;;;19.15;100.00
20455;BME280;10386;54.314;10.022;2023-07-13T10:17:52;101228.53;;;19.92;100.00
20455;BME280;10386;54.314;10.022;2023-07-13T10:20:20;101229.50;;;20.26;100.00
20455;BME280;10386;54.314;10.022;2023-07-13T10:22:51;101230.41;;;20.09;100.00
20455;BME280;10386;54.314;10.022;2023-07-13T10:25:24;101235.47;;;20.39;100.00
20455;BME280;10386;54.314;10.022;2023-07-13T10:27:54;101247.34;;;20.57;100.00
20455;BME280;10386;54.314;10.022;2023-07-13T10:30:26;101274.69;;;20.93;100.00
20455;BME280;10386;54.314;10.022;2023-07-13T10:32:58;101301.44;;;21.00;100.00
20455;BME280;10386;54.314;10.022;2023-07-13T10:35:26;101337.16;;;20.77;100.00
20455;BME280;10386;54.314;10.022;2023-07-13T10:38:03;101350.72;;;21.13;100.00
20455;BME280;10386;54.314;10.022;2023-07-13T10:40:40;101368.38;;;20.95;100.00
20455;BME280;10386;54.314;10.022;2023-07-13T10:43:35;101396.63;;;20.89;100.00
20455;BME280;10386;54.314;10.022;2023-07-13T10:46:06;101402.91;;;20.98;100.00
20455;BME280;10386;54.314;10.022;2023-07-13T10:48:35;101406.78;;;21.39;100.00
20455;BME280;10386;54.314;10.022;2023-07-13T10:51:05;101419.91;;;21.11;100.00
20455;BME280;10386;54.314;10.022;2023-07-13T10:53:35;101426.59;;;20.66;100.00
20455;BME280;10386;54.314;10.022;2023-07-13T10:58:42;101425.16;;;20.62;100.00
20455;BME280;10386;54.314;10.022;2023-07-13T11:01:13;101436.28;;;20.70;100.00
20455;BME280;10386;54.314;10.022;2023-07-13T11:04:01;101442.97;;;21.02;100.00
20455;BME280;10386;54.314;10.022;2023-07-13T11:06:41;101433.38;;;20.72;100.00
20455;BME280;10386;54.314;10.022;2023-07-13T11:11:45;101440.84;;;20.97;100.00
20455;BME280;10386;54.314;10.022;2023-07-13T11:22:52;101424.56;;;22.03;100.00
20455;BME280;10386;54.314;10.022;2023-07-13T11:25:34;101438.00;;;22.40;100.00
20455;BME280;10386;54.314;10.022;2023-07-13T11:30:40;101426.44;;;22.52;100.00
20455;BME280;10386;54.314;10.022;2023-07-13T11:33:23;101430.25;;;22.43;100.00
20455;BME280;10386;54.314;10.022;2023-07-13T11:36:03;101432.16;;;22.50;100.00
20455;BME280;10386;54.314;10.022;2023-07-13T11:38:42;101429.91;;;22.54;100.00
20455;BME280;10386;54.314;10.022;2023-07-13T11:41:19;101438.13;;;22.22;100.00
20455;BME280;10386;54.314;10.022;2023-07-13T11:43:49;101430.03;;;21.87;100.00
20455;BME280;10386;54.314;10.022;2023-07-13T11:46:24;101431.44;;;22.41;100.00
20455;BME280;10386;54.314;10.022;2023-07-13T11:48:52;101410.13;;;22.33;100.00
20455;BME280;10386;54.314;10.022;2023-07-13T11:51:28;101444.13;;;22.10;100.00
20455;BME280;10386;54.314;10.022;2023-07-13T11:54:03;101428.69;;;22.48;100.00
20455;BME280;10386;54.314;10.022;2023-07-13T11:56:31;101415.72;;;22.73;100.00
20455;BME280;10386;54.314;10.022;2023-07-13T11:59:06;101449.84;;;22.73;100.00
20455;BME280;10386;54.314;10.022;2023-07-13T12:01:35;101424.72;;;22.75;100.00
20455;BME280;10386;54.314;10.022;2023-07-13T12:04:23;101422.50;;;23.10;100.00
20455;BME280;10386;54.314;10.022;2023-07-13T12:07:17;101398.94;;;23.06;100.00
20455;BME280;10386;54.314;10.022;2023-07-13T12:09:44;101420.59;;;23.27;100.00
20455;BME280;10386;54.314;10.022;2023-07-13T12:12:13;101416.13;;;23.10;100.00
20455;BME280;10386;54.314;10.022;2023-07-13T12:14:40;101416.97;;;22.78;100.00
20455;BME280;10386;54.314;10.022;2023-07-13T12:17:15;101418.13;;;22.36;100.00
20455;BME280;10386;54.314;10.022;2023-07-13T12:19:42;101436.03;;;22.16;100.00
20455;BME280;10386;54.314;10.022;2023-07-13T12:22:12;101443.44;;;21.66;100.00
20455;BME280;10386;54.314;10.022;2023-07-13T12:24:41;101414.88;;;21.07;100.00
20455;BME280;10386;54.314;10.022;2023-07-13T12:27:23;101448.28;;;20.96;100.00
20455;BME280;10386;54.314;10.022;2023-07-13T12:30:28;101457.03;;;20.92;100.00
20455;BME280;10386;54.314;10.022;2023-07-13T12:33:01;101473.91;;;21.06;100.00
20455;BME280;10386;54.314;10.022;2023-07-13T12:35:29;101462.03;;;21.13;100.00
20455;BME280;10386;54.314;10.022;2023-07-13T12:37:58;101473.78;;;21.15;100.00
20455;BME280;10386;54.314;10.022;2023-07-13T12:40:34;101473.59;;;21.09;100.00
20455;BME280;10386;54.314;10.022;2023-07-13T12:43:03;101467.38;;;20.90;100.00
20455;BME280;10386;54.314;10.022;2023-07-13T12:45:33;101502.63;;;21.13;100.00
20455;BME280;10386;54.314;10.022;2023-07-13T12:48:14;101506.91;;;21.33;100.00
20455;BME280;10386;54.314;10.022;2023-07-13T12:50:46;101519.00;;;21.57;100.00
20455;BME280;10386;54.314;10.022;2023-07-13T12:53:16;101492.59;;;21.12;100.00
20455;BME280;10386;54.314;10.022;2023-07-13T12:55:56;101502.31;;;20.98;100.00
20455;BME280;10386;54.314;10.022;2023-07-13T12:58:31;101519.97;;;21.05;100.00
20455;BME280;10386;54.314;10.022;2023-07-13T13:01:01;101529.53;;;21.11;100.00
20455;BME280;10386;54.314;10.022;2023-07-13T13:03:39;101514.84;;;21.10;100.00
20455;BME280;10386;54.314;10.022;2023-07-13T13:08:50;101528.81;;;21.26;100.00
20455;BME280;10386;54.314;10.022;2023-07-13T13:11:18;101508.28;;;21.11;100.00
20455;BME280;10386;54.314;10.022;2023-07-13T13:13:45;101515.72;;;21.11;100.00
20455;BME280;10386;54.314;10.022;2023-07-13T13:18:52;101499.47;;;20.91;100.00
20455;BME280;10386;54.314;10.022;2023-07-13T13:21:20;101498.63;;;20.90;100.00
20455;BME280;10386;54.314;10.022;2023-07-13T13:23:47;101522.28;;;21.10;100.00
20455;BME280;10386;54.314;10.022;2023-07-13T13:26:15;101540.25;;;21.31;100.00